Time;durP1;ratioP1;P1;durP2;ratioP2;P2;SDS_P1;SDS_P2;PMS_P1;PMS_P2;Temp;Humidity;BMP_temperature;BMP_pressure;BME280_temperature;BME280_humidity;BME280_pressure;Samples;Min_cycle;Max_cycle;Signal;HPM_P1;HPM_P2
2022/02/12 00:00:34;;;;;;;11.98;1.77;;;-0.80;99.90;;;;;;5052767;28;20057;-86
2022/02/12 00:03:01;;;;;;;9.35;1.85;;;-0.80;99.90;;;;;;5052831;28;20469;-86
2022/02/12 00:05:28;;;;;;;9.27;1.90;;;-0.90;99.90;;;;;;5054046;28;20049;-86
2022/02/12 00:07:56;;;;;;;3.40;1.38;;;-0.90;99.90;;;;;;5053355;28;20420;-87
2022/02/12 00:10:26;;;;;;;9.90;1.63;;;-1.00;99.90;;;;;;5053044;28;20051;-86
2022/02/12 00:12:54;;;;;;;5.20;1.60;;;-1.10;99.90;;;;;;5055453;28;20053;-87
2022/02/12 00:15:22;;;;;;;6.85;1.80;;;-1.20;99.90;;;;;;5065882;28;20106;-86
2022/02/12 00:17:49;;;;;;;8.80;1.83;;;-1.30;99.90;;;;;;5049868;28;20063;-86
2022/02/12 00:20:16;;;;;;;6.80;1.90;;;-1.30;99.90;;;;;;5016511;28;20049;-86
2022/02/12 00:22:43;;;;;;;4.55;1.65;;;-1.30;99.90;;;;;;5033880;28;20051;-87
2022/02/12 00:25:11;;;;;;;6.03;1.95;;;-1.30;99.90;;;;;;5033826;28;20057;-87
2022/02/12 00:27:38;;;;;;;10.05;1.50;;;-1.40;99.90;;;;;;5015965;28;20057;-87
2022/02/12 00:30:05;;;;;;;7.63;1.80;;;-1.40;99.90;;;;;;5016335;28;20128;-88
2022/02/12 00:32:32;;;;;;;3.85;1.50;;;-1.40;99.90;;;;;;5016211;28;20057;-88
2022/02/12 00:35:01;;;;;;;8.93;2.28;;;-1.50;99.90;;;;;;5033763;28;20107;-88
2022/02/12 00:37:29;;;;;;;5.88;2.20;;;-1.60;99.90;;;;;;5033743;28;20057;-89
2022/02/12 00:39:57;;;;;;;9.00;1.92;;;-1.60;99.90;;;;;;5016366;28;20453;-89
2022/02/12 00:42:25;;;;;;;5.10;1.70;;;-1.60;99.90;;;;;;5016513;28;20056;-89
2022/02/12 00:44:52;;;;;;;6.10;1.50;;;-1.70;99.90;;;;;;5016321;28;20041;-89
2022/02/12 00:47:19;;;;;;;8.63;1.55;;;-1.90;99.90;;;;;;5016530;28;20152;-90
2022/02/12 00:49:46;;;;;;;9.65;1.63;;;-2.10;99.90;;;;;;5016287;28;20057;-90
2022/02/12 00:52:13;;;;;;;11.73;2.25;;;-2.10;99.90;;;;;;5016349;28;20409;-89
2022/02/12 00:54:40;;;;;;;6.72;1.95;;;-2.00;99.90;;;;;;5016224;28;20059;-89
2022/02/12 00:57:08;;;;;;;8.05;2.30;;;-2.00;99.90;;;;;;5016482;28;20072;-90
2022/02/12 00:59:35;;;;;;;3.08;1.75;;;-2.10;99.90;;;;;;5015898;28;20076;-90
2022/02/12 01:02:02;;;;;;;6.50;1.67;;;-2.10;99.90;;;;;;5016222;28;20081;-90
2022/02/12 01:04:29;;;;;;;4.47;1.63;;;-2.20;99.90;;;;;;5016205;28;20065;-90
2022/02/12 01:06:56;;;;;;;4.93;1.75;;;-2.40;99.90;;;;;;5017028;28;20088;-91
2022/02/12 01:09:27;;;;;;;12.00;2.10;;;-2.30;99.90;;;;;;5019742;28;20051;-91
2022/02/12 01:12:12;;;;;;;8.60;1.67;;;-2.30;99.90;;;;;;5019613;28;20049;-91
2022/02/12 01:14:38;;;;;;;6.03;1.45;;;-2.40;99.90;;;;;;5015943;28;20494;-91
2022/02/12 01:17:05;;;;;;;7.22;1.75;;;-2.40;99.90;;;;;;5016098;28;20097;-91
2022/02/12 01:19:32;;;;;;;9.25;1.80;;;-2.60;99.90;;;;;;5015791;28;20133;-91
2022/02/12 01:21:59;;;;;;;5.47;1.75;;;-2.60;99.90;;;;;;5016098;28;20046;-92
2022/02/12 01:24:26;;;;;;;7.40;1.98;;;-2.60;99.90;;;;;;5016210;28;20056;-91
2022/02/12 01:26:56;;;;;;;6.40;1.77;;;-2.60;99.90;;;;;;5023187;28;20089;-91
2022/02/12 01:29:22;;;;;;;4.90;1.92;;;-2.40;99.90;;;;;;5040747;28;20033;-91
2022/02/12 01:31:49;;;;;;;10.18;2.22;;;-2.40;99.90;;;;;;5020171;28;20120;-91
2022/02/12 01:34:16;;;;;;;5.40;1.65;;;-2.40;99.90;;;;;;5015764;28;20142;-92
2022/02/12 01:36:43;;;;;;;10.43;1.88;;;-2.40;99.90;;;;;;5015762;28;20057;-92
2022/02/12 01:39:09;;;;;;;9.40;1.95;;;-2.40;99.90;;;;;;5015681;28;20549;-92
2022/02/12 01:41:36;;;;;;;10.32;1.98;;;-2.40;99.90;;;;;;5021353;28;20134;-92
2022/02/12 01:44:27;;;;;;;9.40;2.05;;;-2.40;99.90;;;;;;5025781;28;20477;-92
2022/02/12 01:46:54;;;;;;;5.80;1.90;;;-2.40;99.90;;;;;;5023979;28;20071;-92
2022/02/12 01:49:29;;;;;;;7.85;1.80;;;-2.40;99.90;;;;;;5016974;28;20065;-92
2022/02/12 01:51:57;;;;;;;5.15;2.40;;;-2.50;99.90;;;;;;5015969;28;20052;-93
2022/02/12 01:54:26;;;;;;;7.30;2.10;;;-2.60;99.90;;;;;;5015929;28;20053;-92
2022/02/12 01:56:55;;;;;;;10.63;1.92;;;-2.60;99.90;;;;;;5015856;28;20490;-93
2022/02/12 01:59:24;;;;;;;7.60;2.60;;;-2.60;99.90;;;;;;5015303;28;20053;-92
2022/02/12 02:01:51;;;;;;;10.02;2.20;;;-2.70;99.90;;;;;;5016014;28;20051;-91
2022/02/12 02:04:19;;;;;;;8.65;1.90;;;-2.80;99.90;;;;;;5019831;28;20136;-93
2022/02/12 02:06:47;;;;;;;7.22;2.35;;;-2.80;99.90;;;;;;5019591;28;20041;-91
2022/02/12 02:09:15;;;;;;;12.25;2.38;;;-2.70;99.90;;;;;;5019622;28;20496;-92
2022/02/12 02:11:42;;;;;;;14.65;2.28;;;-2.70;99.90;;;;;;5019360;28;20140;-93
2022/02/12 02:14:10;;;;;;;8.68;2.33;;;-2.80;99.90;;;;;;5019455;28;20084;-94
2022/02/12 02:16:40;;;;;;;5.28;1.83;;;-2.90;99.90;;;;;;5019362;28;20045;-93
2022/02/12 02:19:08;;;;;;;7.72;1.95;;;-2.90;99.90;;;;;;5019096;28;20050;-93
2022/02/12 02:21:37;;;;;;;6.90;1.90;;;-2.90;99.90;;;;;;5019446;28;20129;-93
2022/02/12 02:24:05;;;;;;;10.93;2.53;;;-3.00;99.90;;;;;;5019232;28;20080;-93
2022/02/12 02:26:33;;;;;;;4.88;1.98;;;-3.10;99.90;;;;;;5019130;28;20081;-94
2022/02/12 02:29:00;;;;;;;5.95;2.28;;;-3.00;99.90;;;;;;5019239;28;20144;-92
2022/02/12 02:31:27;;;;;;;8.18;2.00;;;-3.00;99.90;;;;;;5019282;28;20053;-94
2022/02/12 02:33:56;;;;;;;3.63;2.22;;;-2.90;99.90;;;;;;5019439;28;20061;-93
2022/02/12 02:36:23;;;;;;;10.95;1.95;;;-2.90;99.90;;;;;;5019428;28;20049;-94
2022/02/12 02:38:49;;;;;;;9.32;2.05;;;-2.80;99.90;;;;;;5020158;28;20602;-93
2022/02/12 02:41:16;;;;;;;4.65;1.67;;;-2.80;99.90;;;;;;5033454;28;20044;-92
2022/02/12 02:43:43;;;;;;;5.20;1.77;;;-3.00;99.90;;;;;;5040220;28;20049;-93
2022/02/12 02:46:15;;;;;;;7.72;2.47;;;-3.00;99.90;;;;;;5019619;28;20041;-94
2022/02/12 02:48:42;;;;;;;1.75;1.58;;;-3.10;99.90;;;;;;5019028;28;20045;-94
2022/02/12 02:56:39;;;;;;;11.93;2.17;;;-3.20;99.90;;;;;;5036134;28;20052;-95
2022/02/12 02:59:06;;;;;;;8.68;2.20;;;-3.30;99.90;;;;;;5018519;28;20437;-93
2022/02/12 03:01:35;;;;;;;10.93;2.50;;;-3.30;99.90;;;;;;5018468;28;20046;-94
2022/02/12 03:04:04;;;;;;;4.70;2.08;;;-3.40;99.90;;;;;;5018586;28;20080;-94
2022/02/12 03:06:31;;;;;;;3.70;2.05;;;-3.40;99.90;;;;;;5017914;28;20136;-93
2022/02/12 03:08:59;;;;;;;6.03;1.77;;;-3.50;99.90;;;;;;5018375;28;20141;-94
2022/02/12 03:11:26;;;;;;;4.53;2.15;;;-3.50;99.90;;;;;;5018150;28;20050;-92
2022/02/12 03:13:55;;;;;;;3.25;1.48;;;-3.40;99.90;;;;;;5017960;28;20053;-94
2022/02/12 03:16:22;;;;;;;7.72;2.13;;;-3.50;99.90;;;;;;5018151;28;20111;-93
2022/02/12 03:18:50;;;;;;;10.68;1.90;;;-3.60;99.90;;;;;;5037388;28;20144;-94
2022/02/12 03:21:16;;;;;;;11.40;7.70;;;-3.60;99.90;;;;;;5054372;28;20080;-94
2022/02/12 03:23:43;;;;;;;8.88;3.50;;;-3.60;99.90;;;;;;5054358;28;20049;-94
2022/02/12 03:26:11;;;;;;;9.40;2.17;;;-3.60;99.90;;;;;;5054520;28;20060;-94
2022/02/12 03:28:38;;;;;;;5.47;3.47;;;-3.60;99.90;;;;;;5054589;28;20132;-94
2022/02/12 03:31:05;;;;;;;9.00;2.78;;;-3.60;99.90;;;;;;5054176;28;20127;-94
2022/02/12 03:33:32;;;;;;;6.95;2.28;;;-3.60;99.90;;;;;;5054116;28;20160;-93
2022/02/12 03:35:59;;;;;;;7.20;1.90;;;-3.70;99.90;;;;;;5054363;28;20408;-93
2022/02/12 03:38:28;;;;;;;6.68;3.00;;;-3.70;99.90;;;;;;5054097;28;20055;-94
2022/02/12 03:40:58;;;;;;;6.30;2.10;;;-3.70;99.90;;;;;;5054447;28;20057;-94
2022/02/12 03:43:25;;;;;;;8.50;2.08;;;-3.60;99.90;;;;;;5054199;28;20068;-94
2022/02/12 03:45:53;;;;;;;6.68;2.15;;;-3.50;99.90;;;;;;5053676;28;20052;-94
2022/02/12 03:48:24;;;;;;;12.27;2.40;;;-3.50;99.90;;;;;;5053826;28;20048;-94
2022/02/12 03:50:54;;;;;;;8.88;2.72;;;-3.50;99.90;;;;;;5054183;28;20047;-94
2022/02/12 03:53:21;;;;;;;7.22;2.25;;;-3.40;99.90;;;;;;5055051;28;20425;-94
2022/02/12 03:55:49;;;;;;;9.13;2.30;;;-3.40;99.90;;;;;;5076296;28;20025;-92
2022/02/12 03:58:19;;;;;;;5.50;1.90;;;-3.40;99.90;;;;;;5063904;28;20122;-94
2022/02/12 04:00:47;;;;;;;7.45;2.13;;;-3.40;99.90;;;;;;5053474;28;20516;-94
2022/02/12 04:03:15;;;;;;;5.30;2.00;;;-3.40;99.90;;;;;;5053601;28;20045;-94
2022/02/12 04:05:43;;;;;;;11.05;2.10;;;-3.60;99.90;;;;;;5053333;28;20071;-94
2022/02/12 04:08:13;;;;;;;7.82;2.40;;;-3.70;99.90;;;;;;5053536;28;20057;-94
2022/02/12 04:10:40;;;;;;;11.05;2.83;;;-3.70;99.90;;;;;;5053330;28;20049;-94
2022/02/12 04:13:07;;;;;;;6.30;1.85;;;-3.70;99.90;;;;;;5053437;28;20098;-95
2022/02/12 04:15:33;;;;;;;13.27;2.58;;;-3.70;99.90;;;;;;5052892;28;20551;-93
2022/02/12 04:18:00;;;;;;;11.35;2.53;;;-3.70;99.90;;;;;;5053228;28;20049;-94
2022/02/12 04:20:27;;;;;;;7.78;1.90;;;-3.70;99.90;;;;;;5053112;28;20049;-94
2022/02/12 04:22:54;;;;;;;11.35;2.65;;;-3.70;99.90;;;;;;5053089;28;20501;-94
2022/02/12 04:25:22;;;;;;;5.00;2.22;;;-3.70;99.90;;;;;;5052217;28;20059;-94
2022/02/12 04:27:50;;;;;;;11.05;2.58;;;-3.70;99.90;;;;;;5053303;28;20057;-94
2022/02/12 04:30:18;;;;;;;7.60;2.33;;;-3.70;99.90;;;;;;5053227;28;20554;-94
2022/02/12 04:32:45;;;;;;;9.85;2.63;;;-3.60;99.90;;;;;;5053616;28;20167;-94
2022/02/12 04:35:13;;;;;;;13.63;3.35;;;-3.60;99.90;;;;;;5053763;28;20136;-94
2022/02/12 04:37:41;;;;;;;7.88;2.85;;;-3.60;99.90;;;;;;5052894;28;20049;-94
2022/02/12 04:40:09;;;;;;;8.95;2.05;;;-3.70;99.90;;;;;;5053426;28;20049;-94
2022/02/12 04:42:36;;;;;;;4.80;2.00;;;-3.80;99.90;;;;;;5052954;28;20465;-94
2022/02/12 04:45:04;;;;;;;5.88;2.92;;;-3.80;99.90;;;;;;5053112;28;20049;-94
2022/02/12 04:47:30;;;;;;;8.75;3.55;;;-3.90;99.90;;;;;;5052779;28;20115;-95
2022/02/12 04:49:57;;;;;;;5.38;2.50;;;-4.00;99.90;;;;;;5052965;28;20053;-94
2022/02/12 04:52:24;;;;;;;10.98;2.53;;;-4.00;99.90;;;;;;5052782;28;20468;-95
2022/02/12 04:54:51;;;;;;;6.75;2.40;;;-4.00;99.90;;;;;;5052497;28;20067;-95
2022/02/12 04:57:17;;;;;;;7.97;2.20;;;-4.00;99.90;;;;;;5053119;28;20048;-95
2022/02/12 04:59:44;;;;;;;9.35;2.50;;;-4.10;99.90;;;;;;5052851;28;20068;-95
2022/02/12 05:02:11;;;;;;;9.10;2.38;;;-4.20;99.90;;;;;;5052799;28;20136;-95
2022/02/12 05:04:38;;;;;;;7.07;2.90;;;-4.20;99.90;;;;;;5053170;28;20140;-94
2022/02/12 05:07:05;;;;;;;9.48;3.60;;;-4.20;99.90;;;;;;5056105;28;20045;-95
2022/02/12 05:09:34;;;;;;;12.75;4.00;;;-4.20;99.90;;;;;;5075302;28;20060;-94
2022/02/12 05:12:03;;;;;;;8.13;3.17;;;-4.20;99.90;;;;;;5059817;28;20131;-95
2022/02/12 05:14:32;;;;;;;10.23;3.13;;;-4.30;99.90;;;;;;5052623;28;20053;-95
2022/02/12 05:16:59;;;;;;;14.98;3.00;;;-4.30;99.90;;;;;;5052342;28;20071;-95
2022/02/12 05:19:26;;;;;;;4.25;2.13;;;-4.30;99.90;;;;;;5051661;28;20061;-95
2022/02/12 05:21:54;;;;;;;7.43;2.78;;;-4.30;99.90;;;;;;5052406;28;20508;-95
2022/02/12 05:24:21;;;;;;;7.13;2.30;;;-4.40;99.90;;;;;;5052224;28;20143;-95
2022/02/12 05:26:48;;;;;;;5.40;2.22;;;-4.40;99.90;;;;;;5052388;28;20053;-94
2022/02/12 05:29:14;;;;;;;7.97;2.60;;;-4.40;99.90;;;;;;5052306;28;20132;-95
2022/02/12 05:31:41;;;;;;;6.13;2.63;;;-4.50;99.90;;;;;;5052347;28;20501;-95
2022/02/12 05:34:14;;;;;;;9.00;2.95;;;-4.40;99.90;;;;;;5052406;28;20107;-95
2022/02/12 05:36:42;;;;;;;6.72;2.88;;;-4.40;99.90;;;;;;5052465;28;20053;-94
2022/02/12 05:39:09;;;;;;;6.45;2.20;;;-4.30;99.90;;;;;;5055982;28;20136;-94
2022/02/12 05:41:37;;;;;;;8.15;2.03;;;-4.30;99.90;;;;;;5056456;28;20053;-94
2022/02/12 05:44:07;;;;;;;5.45;2.05;;;-4.30;99.90;;;;;;5056360;28;20485;-94
2022/02/12 05:46:35;;;;;;;6.07;2.15;;;-4.40;99.90;;;;;;5056131;28;20424;-94
2022/02/12 05:49:04;;;;;;;8.23;2.30;;;-4.40;99.90;;;;;;5056196;28;20121;-95
2022/02/12 05:51:31;;;;;;;3.72;1.70;;;-4.50;99.90;;;;;;5056358;28;20467;-96
2022/02/12 05:54:00;;;;;;;8.40;2.17;;;-4.50;99.90;;;;;;5056444;28;20382;-94
2022/02/12 05:56:28;;;;;;;12.80;2.40;;;-4.50;99.90;;;;;;5055927;28;20045;-94
2022/02/12 05:58:55;;;;;;;4.57;2.10;;;-4.40;99.90;;;;;;5055797;28;20063;-94
2022/02/12 06:01:22;;;;;;;11.32;2.80;;;-4.40;99.90;;;;;;5056806;28;20055;-95
2022/02/12 06:03:49;;;;;;;7.88;2.47;;;-4.40;99.90;;;;;;5057208;28;20121;-94
2022/02/12 06:06:17;;;;;;;9.38;2.80;;;-4.50;99.90;;;;;;5057246;28;20109;-94
2022/02/12 06:08:45;;;;;;;13.55;3.58;;;-4.40;99.90;;;;;;5057761;28;20055;-95
2022/02/12 06:11:12;;;;;;;8.82;2.78;;;-4.60;99.90;;;;;;5057836;28;20075;-95
2022/02/12 06:13:39;;;;;;;12.02;3.20;;;-4.60;99.90;;;;;;5057515;28;20128;-94
2022/02/12 06:16:06;;;;;;;7.75;2.45;;;-4.50;99.90;;;;;;5056819;28;20053;-95
2022/02/12 06:18:33;;;;;;;7.65;2.58;;;-4.50;99.90;;;;;;5058520;28;20132;-95
2022/02/12 06:20:59;;;;;;;9.35;4.03;;;-4.50;99.90;;;;;;5059878;28;20206;-95
2022/02/12 06:23:26;;;;;;;13.50;4.20;;;-4.50;99.90;;;;;;5076998;28;20084;-94
2022/02/12 06:25:55;;;;;;;8.88;2.72;;;-4.60;99.90;;;;;;5068524;28;20057;-94
2022/02/12 06:28:22;;;;;;;7.93;2.63;;;-4.60;99.90;;;;;;5056519;28;20049;-95
2022/02/12 06:30:49;;;;;;;7.30;2.42;;;-4.60;99.90;;;;;;5056735;28;20057;-95
2022/02/12 06:33:15;;;;;;;9.00;3.25;;;-4.60;99.90;;;;;;5056602;28;20132;-95
2022/02/12 06:35:42;;;;;;;6.18;3.05;;;-4.70;99.90;;;;;;5056688;28;20080;-94
2022/02/12 06:38:10;;;;;;;13.15;3.60;;;-4.80;99.90;;;;;;5056468;28;20045;-95
2022/02/12 06:40:37;;;;;;;8.35;2.50;;;-4.70;99.90;;;;;;5055480;28;20120;-94
2022/02/12 06:43:04;;;;;;;9.68;3.30;;;-4.70;99.90;;;;;;5056432;28;20453;-94
2022/02/12 06:45:32;;;;;;;15.02;4.78;;;-4.60;99.90;;;;;;5056189;28;20079;-94
2022/02/12 06:48:01;;;;;;;15.73;5.10;;;-4.60;99.90;;;;;;5055747;28;20045;-95
2022/02/12 06:50:28;;;;;;;16.90;6.47;;;-4.50;99.90;;;;;;5056501;28;20144;-94
2022/02/12 06:52:55;;;;;;;27.17;11.48;;;-4.50;99.90;;;;;;5056313;28;20077;-94
2022/02/12 06:55:21;;;;;;;30.90;10.40;;;-4.50;99.90;;;;;;5055582;28;20510;-94
2022/02/12 06:57:50;;;;;;;29.33;9.60;;;-4.50;99.90;;;;;;5056631;28;20065;-94
2022/02/12 07:00:20;;;;;;;19.35;8.65;;;-4.50;99.90;;;;;;5056388;28;20127;-95
2022/02/12 07:02:50;;;;;;;20.27;8.65;;;-4.50;99.90;;;;;;5060136;28;20049;-95
2022/02/12 07:05:18;;;;;;;12.45;5.07;;;-4.50;99.90;;;;;;5059997;28;20049;-94
2022/02/12 07:07:47;;;;;;;14.55;5.75;;;-4.50;99.90;;;;;;5057204;28;20052;-94
2022/02/12 07:10:15;;;;;;;13.02;7.57;;;-4.40;99.90;;;;;;5057890;28;20131;-94
2022/02/12 07:12:42;;;;;;;16.77;6.50;;;-4.50;99.90;;;;;;5056790;28;20067;-95
2022/02/12 07:15:09;;;;;;;13.52;7.38;;;-4.50;99.90;;;;;;5056147;28;20075;-93
2022/02/12 07:17:39;;;;;;;14.73;5.63;;;-4.50;99.90;;;;;;5054448;28;20117;-93
2022/02/12 07:20:10;;;;;;;13.63;6.10;;;-4.50;99.90;;;;;;5018771;28;20497;-94
2022/02/12 07:22:39;;;;;;;7.65;5.55;;;-4.40;99.90;;;;;;5013454;28;20490;-93
2022/02/12 07:25:11;;;;;;;11.85;5.95;;;-4.30;99.90;;;;;;5017368;28;20086;-94
2022/02/12 07:27:38;;;;;;;10.93;5.07;;;-4.30;99.90;;;;;;5015939;28;20058;-94
2022/02/12 07:30:07;;;;;;;15.13;5.20;;;-4.40;99.90;;;;;;5016505;28;20061;-95
2022/02/12 07:32:35;;;;;;;16.98;5.43;;;-4.40;99.90;;;;;;5015063;28;20058;-94
2022/02/12 07:35:08;;;;;;;16.40;5.38;;;-4.30;99.90;;;;;;5016407;28;20100;-95
2022/02/12 07:37:38;;;;;;;13.10;5.72;;;-4.40;99.90;;;;;;5026551;28;20045;-95
2022/02/12 07:40:05;;;;;;;19.70;6.13;;;-4.40;99.90;;;;;;5035156;28;20066;-95
2022/02/12 07:42:32;;;;;;;16.75;6.68;;;-4.30;99.90;;;;;;5014601;28;20129;-95
2022/02/12 07:44:59;;;;;;;19.23;7.10;;;-4.20;99.90;;;;;;5013943;28;20140;-95
2022/02/12 07:47:25;;;;;;;24.23;7.63;;;-4.20;99.90;;;;;;5014345;28;20406;-95
2022/02/12 07:49:52;;;;;;;28.88;10.18;;;-4.20;99.90;;;;;;5013904;28;20046;-95
2022/02/12 07:52:19;;;;;;;35.35;12.32;;;-4.10;99.90;;;;;;5014890;28;20569;-95
2022/02/12 07:54:48;;;;;;;26.88;10.30;;;-4.10;99.90;;;;;;5015314;28;20546;-94
2022/02/12 07:57:15;;;;;;;13.13;4.63;;;-4.10;99.90;;;;;;5015529;28;20136;-95
2022/02/12 07:59:42;;;;;;;11.30;4.65;;;-4.00;99.90;;;;;;5013231;28;20046;-94
2022/02/12 08:02:09;;;;;;;11.43;3.13;;;-3.90;99.90;;;;;;4997230;28;20117;-94
2022/02/12 08:04:35;;;;;;;10.63;4.05;;;-3.90;99.90;;;;;;5013294;28;20049;-94
2022/02/12 08:09:48;;;;;;;12.45;6.88;;;-3.70;99.90;;;;;;5014895;28;20049;-94
2022/02/12 08:12:15;;;;;;;8.75;4.20;;;-3.70;99.90;;;;;;5014173;28;20053;-95
2022/02/12 08:14:43;;;;;;;7.45;3.15;;;-3.60;99.90;;;;;;5013986;28;20129;-95
2022/02/12 08:17:12;;;;;;;8.90;3.30;;;-3.60;99.90;;;;;;5014574;28;20065;-95
2022/02/12 08:19:39;;;;;;;9.98;3.45;;;-3.50;99.90;;;;;;5013777;28;20050;-94
2022/02/12 08:22:06;;;;;;;14.23;3.53;;;-3.50;99.90;;;;;;5015175;28;20068;-95
2022/02/12 08:24:33;;;;;;;10.18;4.07;;;-3.50;99.90;;;;;;4997375;28;20524;-94
2022/02/12 08:27:01;;;;;;;6.25;3.20;;;-3.50;99.90;;;;;;5015069;28;20141;-95
2022/02/12 08:29:28;;;;;;;8.02;3.15;;;-3.50;99.90;;;;;;5014361;28;20132;-95
2022/02/12 08:31:56;;;;;;;8.10;3.13;;;-3.40;99.90;;;;;;5013535;28;20132;-95
2022/02/12 08:34:24;;;;;;;11.85;3.78;;;-3.40;99.90;;;;;;4997414;28;20501;-94
2022/02/12 08:36:51;;;;;;;17.00;5.85;;;-3.30;99.90;;;;;;5013087;28;20582;-94
2022/02/12 08:39:18;;;;;;;1206.75;273.05;;;-2.80;99.90;;;;;;5013421;28;20075;-93
2022/02/12 08:41:46;;;;;;;1999.90;999.90;;;-1.40;99.90;;;;;;5012714;28;20099;-92
2022/02/12 08:44:13;;;;;;;1999.90;954.15;;;0.90;99.90;;;;;;5012898;28;20439;-92
2022/02/12 08:46:40;;;;;;;51.25;18.95;;;3.00;99.90;;;;;;5012991;28;20089;-91
2022/02/12 08:49:07;;;;;;;17.70;6.65;;;3.90;99.90;;;;;;5013619;28;20410;-91
2022/02/12 08:51:40;;;;;;;20.63;8.23;;;4.10;99.90;;;;;;5023208;28;20044;-91
2022/02/12 08:54:08;;;;;;;10.70;3.97;;;4.90;99.90;;;;;;5031885;28;20105;-91
2022/02/12 08:56:37;;;;;;;12.35;5.00;;;4.60;99.90;;;;;;4996996;28;20076;-91
2022/02/12 08:59:05;;;;;;;6.22;3.90;;;5.30;99.90;;;;;;5012948;28;20060;-91
2022/02/12 09:01:33;;;;;;;7.53;3.47;;;6.30;99.90;;;;;;4997246;28;20137;-90
2022/02/12 09:04:00;;;;;;;7.07;1.27;;;6.90;99.90;;;;;;5013161;28;20486;-91
2022/02/12 09:06:26;;;;;;;5.47;1.67;;;8.00;99.90;;;;;;5011314;28;20378;-91
2022/02/12 09:08:55;;;;;;;6.15;1.75;;;9.50;99.90;;;;;;5012947;28;20053;-90
2022/02/12 09:11:23;;;;;;;7.80;2.22;;;11.20;99.90;;;;;;5013229;28;20113;-91
2022/02/12 09:13:53;;;;;;;5.47;1.45;;;10.80;99.90;;;;;;5013368;28;20045;-90
2022/02/12 09:16:22;;;;;;;5.40;1.60;;;11.00;99.90;;;;;;4996255;28;20056;-88
2022/02/12 09:18:51;;;;;;;5.63;1.25;;;10.60;99.90;;;;;;5012575;28;20054;-88
2022/02/12 09:21:19;;;;;;;7.63;1.77;;;10.10;99.90;;;;;;5012404;28;20050;-88
2022/02/12 09:23:46;;;;;;;6.47;2.03;;;10.80;99.90;;;;;;5012644;28;20049;-88
2022/02/12 09:26:13;;;;;;;6.63;1.80;;;10.30;97.50;;;;;;5012268;28;20049;-90
2022/02/12 09:28:39;;;;;;;6.40;1.70;;;10.90;99.90;;;;;;5012594;28;20060;-87
2022/02/12 09:31:06;;;;;;;8.07;1.70;;;11.60;95.00;;;;;;5012691;28;20058;-90
2022/02/12 09:33:33;;;;;;;13.13;1.98;;;10.20;95.30;;;;;;5012588;28;20050;-88
2022/02/12 09:36:00;;;;;;;6.40;1.58;;;10.90;93.10;;;;;;5012490;28;20056;-88
2022/02/12 09:38:28;;;;;;;10.93;2.08;;;10.70;94.00;;;;;;5012301;28;20118;-90
2022/02/12 09:40:56;;;;;;;4.55;1.88;;;11.70;92.40;;;;;;5012885;28;20046;-87
2022/02/12 09:43:25;;;;;;;10.20;1.60;;;11.00;92.70;;;;;;5012511;28;20048;-88
2022/02/12 09:46:27;;;;;;;8.30;1.80;;;11.30;94.40;;;;;;5013087;28;20081;-88
2022/02/12 09:48:54;;;;;;;5.28;2.00;;;12.40;90.90;;;;;;5004692;28;20129;-88
2022/02/12 09:51:26;;;;;;;8.15;1.80;;;11.70;89.40;;;;;;5011673;28;20068;-88
2022/02/12 09:53:53;;;;;;;10.05;1.80;;;12.50;90.10;;;;;;5012228;28;20605;-87
2022/02/12 09:56:20;;;;;;;3.22;1.27;;;13.20;90.20;;;;;;5011611;28;20050;-86
2022/02/12 09:58:47;;;;;;;4.60;1.45;;;13.30;90.20;;;;;;5012635;28;20056;-87
2022/02/12 10:01:15;;;;;;;8.52;1.80;;;12.70;89.40;;;;;;4995738;28;20050;-89
2022/02/12 10:03:42;;;;;;;6.32;1.60;;;13.90;82.80;;;;;;5012930;28;20137;-88
2022/02/12 10:06:10;;;;;;;4.90;2.13;;;15.20;79.90;;;;;;5024442;28;20080;-87
2022/02/12 10:08:37;;;;;;;5.65;1.48;;;14.80;76.90;;;;;;5025636;28;20105;-87
2022/02/12 10:11:13;;;;;;;5.05;1.45;;;15.10;79.90;;;;;;5014654;28;20041;-88
2022/02/12 10:13:40;;;;;;;5.13;1.60;;;14.10;76.10;;;;;;5013032;28;20042;-87
2022/02/12 10:16:07;;;;;;;7.68;1.33;;;13.30;81.50;;;;;;5014185;28;20050;-86
2022/02/12 10:18:39;;;;;;;4.18;1.52;;;13.60;81.30;;;;;;5012146;28;20093;-86
2022/02/12 10:21:07;;;;;;;9.50;1.80;;;14.40;79.90;;;;;;5013701;28;20491;-86
2022/02/12 10:23:39;;;;;;;4.63;1.52;;;16.50;76.30;;;;;;5014177;28;20050;-85
2022/02/12 10:26:11;;;;;;;18.85;1.95;;;16.90;73.50;;;;;;5016379;28;20054;-86
2022/02/12 10:28:46;;;;;;;22.33;2.30;;;17.10;69.60;;;;;;5015535;28;20042;-86
2022/02/12 10:31:14;;;;;;;3.60;1.50;;;18.10;68.70;;;;;;5016450;28;20096;-86
2022/02/12 10:33:47;;;;;;;3.60;1.58;;;17.30;65.70;;;;;;5015218;28;20088;-85
2022/02/12 10:36:17;;;;;;;3.17;1.40;;;17.00;68.60;;;;;;5015030;28;20537;-85
2022/02/12 10:38:49;;;;;;;3.60;1.40;;;16.30;66.90;;;;;;4998778;28;20046;-86
2022/02/12 10:41:19;;;;;;;8.35;2.38;;;17.00;65.40;;;;;;5016060;28;20053;-86
2022/02/12 10:43:49;;;;;;;4.03;1.42;;;16.70;65.10;;;;;;5015131;28;20046;-86
2022/02/12 10:46:18;;;;;;;2.58;1.17;;;16.00;64.80;;;;;;5015191;28;20116;-86
2022/02/12 10:48:48;;;;;;;3.40;1.85;;;16.20;66.20;;;;;;5014554;28;20129;-86
2022/02/12 10:51:16;;;;;;;1.65;1.33;;;15.70;66.40;;;;;;5014965;28;20071;-85
2022/02/12 10:53:55;;;;;;;1.25;0.93;;;15.60;65.40;;;;;;5014830;28;20045;-86
2022/02/12 10:56:22;;;;;;;7.80;1.33;;;15.60;66.00;;;;;;5014512;28;20486;-85
2022/02/12 10:58:49;;;;;;;1.30;1.20;;;16.10;67.20;;;;;;5014422;28;20388;-85
2022/02/12 11:01:16;;;;;;;9.82;2.00;;;15.20;67.00;;;;;;5015263;28;20049;-88
2022/02/12 11:03:44;;;;;;;18.23;2.50;;;14.80;72.10;;;;;;5014409;28;20048;-85
2022/02/12 11:06:14;;;;;;;1.58;1.15;;;16.10;67.60;;;;;;5015464;28;20169;-86
2022/02/12 11:08:41;;;;;;;6.63;1.50;;;16.30;65.40;;;;;;5014854;28;20046;-85
2022/02/12 11:11:08;;;;;;;32.78;3.10;;;15.40;63.70;;;;;;5014384;28;20041;-85
2022/02/12 11:13:37;;;;;;;2.35;1.00;;;15.90;63.60;;;;;;5014402;28;20049;-86
2022/02/12 11:16:04;;;;;;;2.78;1.30;;;15.70;65.20;;;;;;5014450;28;20137;-85
2022/02/12 11:18:31;;;;;;;3.72;1.05;;;16.00;63.60;;;;;;5014659;28;20057;-88
2022/02/12 11:20:58;;;;;;;1.27;0.90;;;14.70;64.90;;;;;;5028248;28;20067;-85
2022/02/12 11:23:30;;;;;;;12.18;1.75;;;15.20;65.90;;;;;;5016080;28;20057;-86
2022/02/12 11:26:04;;;;;;;3.78;0.90;;;15.70;65.80;;;;;;5014122;28;20085;-85
2022/02/12 11:28:32;;;;;;;6.40;1.30;;;16.80;63.00;;;;;;5013856;28;20071;-85
2022/02/12 11:31:23;;;;;;;2.83;0.70;;;17.90;61.20;;;;;;5014307;28;20056;-88
2022/02/12 11:34:10;;;;;;;2.50;0.95;;;16.50;57.60;;;;;;5014912;28;20566;-86
2022/02/12 11:36:40;;;;;;;2.35;0.95;;;15.30;61.30;;;;;;5014010;28;20050;-84
2022/02/12 11:39:13;;;;;;;9.63;2.65;;;15.10;63.40;;;;;;5013727;28;20414;-84
2022/02/12 11:41:42;;;;;;;2.78;0.93;;;13.70;65.00;;;;;;4997955;28;20414;-85
2022/02/12 11:44:09;;;;;;;1.38;0.80;;;15.10;65.40;;;;;;5013844;28;20414;-86
2022/02/12 11:46:51;;;;;;;2.25;0.90;;;16.00;64.80;;;;;;5013874;28;20392;-86
2022/02/12 11:49:32;;;;;;;2.10;0.90;;;16.20;59.80;;;;;;5013780;28;20046;-86
2022/02/12 11:52:04;;;;;;;4.57;1.10;;;15.90;61.50;;;;;;5014888;28;20056;-86
2022/02/12 11:54:56;;;;;;;1.20;0.85;;;15.80;59.90;;;;;;5013759;28;20052;-86
2022/02/12 11:57:26;;;;;;;2.33;0.73;;;16.10;61.00;;;;;;5014712;28;20076;-87
2022/02/12 12:00:03;;;;;;;1.35;0.70;;;16.00;58.60;;;;;;5013631;28;20048;-85
2022/02/12 12:02:36;;;;;;;4.88;1.10;;;14.20;59.40;;;;;;5012743;28;20054;-85
2022/02/12 12:05:20;;;;;;;1.33;0.80;;;13.80;64.50;;;;;;5014424;28;20056;-86
2022/02/12 12:08:02;;;;;;;2.70;0.90;;;14.20;63.60;;;;;;5013524;28;20076;-85
2022/02/12 12:10:31;;;;;;;2.55;0.95;;;14.60;64.90;;;;;;5013285;28;20545;-85
2022/02/12 12:13:26;;;;;;;3.75;1.30;;;14.40;66.00;;;;;;4995828;28;20058;-86
2022/02/12 12:16:14;;;;;;;1.05;0.70;;;15.20;61.50;;;;;;5013349;28;20073;-86
2022/02/12 12:18:45;;;;;;;15.50;1.95;;;14.60;61.00;;;;;;5012025;28;20053;-86
2022/02/12 12:21:17;;;;;;;0.80;0.75;;;14.60;62.90;;;;;;5012349;28;20050;-86
2022/02/12 12:23:54;;;;;;;5.50;1.08;;;13.90;61.60;;;;;;4996636;28;20114;-85
2022/02/12 12:26:33;;;;;;;6.40;1.00;;;14.20;63.70;;;;;;5013496;28;20133;-86
2022/02/12 12:31:54;;;;;;;1.40;0.93;;;15.10;62.60;;;;;;5013688;28;20089;-89
2022/02/12 12:34:22;;;;;;;1.45;0.73;;;14.60;61.30;;;;;;5017962;28;20049;-88
2022/02/12 12:36:48;;;;;;;1.33;0.77;;;13.40;63.80;;;;;;5025529;28;20125;-88
2022/02/12 12:39:15;;;;;;;2.42;0.88;;;12.90;63.90;;;;;;5012387;28;20046;-88
2022/02/12 12:41:43;;;;;;;3.35;0.80;;;12.40;67.10;;;;;;5012115;28;20121;-89
2022/02/12 12:44:18;;;;;;;1.90;0.75;;;12.10;69.30;;;;;;5011219;28;20442;-87
2022/02/12 12:46:51;;;;;;;1.88;0.90;;;12.10;70.30;;;;;;5011247;28;20075;-87
2022/02/12 12:49:27;;;;;;;2.90;1.10;;;11.60;70.90;;;;;;5011691;28;20046;-87
2022/02/12 12:51:53;;;;;;;3.33;1.17;;;11.40;73.40;;;;;;5011694;28;20050;-87
2022/02/12 12:54:44;;;;;;;1.80;1.00;;;11.50;74.00;;;;;;5009294;28;20408;-86
2022/02/12 12:57:13;;;;;;;1.98;0.70;;;10.70;73.40;;;;;;5032614;28;20053;-88
2022/02/12 12:59:51;;;;;;;1.60;0.82;;;10.50;76.00;;;;;;5032835;28;20128;-87
2022/02/12 13:02:19;;;;;;;0.93;0.80;;;10.10;76.00;;;;;;5014792;28;20055;-87